createdAt,value
2022-09-21T00:01:20.828Z,3.17
2022-09-21T00:03:51.650Z,3.13
2022-09-21T00:06:20.445Z,4.10
2022-09-21T00:08:47.768Z,3.30
2022-09-21T00:11:17.713Z,3.42
2022-09-21T00:13:46.636Z,3.47
2022-09-21T00:16:21.954Z,2.95
2022-09-21T00:18:48.701Z,2.75
2022-09-21T00:21:16.476Z,3.58
2022-09-21T00:23:43.893Z,2.75
2022-09-21T00:26:13.524Z,2.70
2022-09-21T00:28:40.795Z,3.17
2022-09-21T00:31:12.127Z,4.03
2022-09-21T00:33:45.929Z,3.35
2022-09-21T00:36:17.221Z,3.67
2022-09-21T00:38:46.117Z,3.30
2022-09-21T00:41:13.630Z,3.72
2022-09-21T00:43:46.131Z,3.20
2022-09-21T00:46:29.946Z,3.90
2022-09-21T00:48:58.395Z,3.92
2022-09-21T00:51:26.021Z,4.57
2022-09-21T00:53:59.254Z,3.60
2022-09-21T00:56:26.698Z,4.50
2022-09-21T00:58:55.226Z,3.28
2022-09-21T01:01:24.998Z,4.70
2022-09-21T01:03:53.416Z,4.22
2022-09-21T01:06:21.349Z,3.70
2022-09-21T01:08:55.171Z,3.58
2022-09-21T01:11:48.210Z,3.63
2022-09-21T01:14:37.912Z,3.80
2022-09-21T01:17:16.892Z,4.07
2022-09-21T01:20:14.483Z,4.28
2022-09-21T01:23:05.374Z,4.80
2022-09-21T01:26:04.752Z,4.78
2022-09-21T01:28:41.520Z,4.20
2022-09-21T01:31:17.091Z,3.90
2022-09-21T01:33:48.337Z,3.85
2022-09-21T01:36:20.732Z,5.45
2022-09-21T01:38:51.137Z,5.10
2022-09-21T01:41:22.601Z,5.85
2022-09-21T01:44:18.206Z,4.00
2022-09-21T01:46:46.899Z,5.82
2022-09-21T01:49:22.495Z,5.90
2022-09-21T01:51:55.340Z,5.32
2022-09-21T01:54:29.235Z,6.00
2022-09-21T01:57:11.878Z,5.40
2022-09-21T01:59:53.232Z,6.10
2022-09-21T02:02:44.300Z,5.32
2022-09-21T02:05:12.805Z,5.13
2022-09-21T02:07:39.955Z,5.30
2022-09-21T02:12:36.309Z,5.43
2022-09-21T02:15:03.568Z,5.40
2022-09-21T02:17:47.024Z,6.43
2022-09-21T02:20:23.084Z,5.28
2022-09-21T02:23:11.295Z,5.03
2022-09-21T02:25:47.450Z,6.13
2022-09-21T02:28:31.287Z,6.75
2022-09-21T02:31:08.870Z,5.47
2022-09-21T02:33:45.652Z,6.63
2022-09-21T02:36:29.791Z,5.53
2022-09-21T02:39:10.735Z,6.35
2022-09-21T02:41:45.558Z,5.47
2022-09-21T02:44:19.563Z,9.48
2022-09-21T02:47:04.843Z,9.13
2022-09-21T02:49:36.784Z,9.98
2022-09-21T02:52:09.365Z,9.35
2022-09-21T02:54:38.242Z,10.80
2022-09-21T02:57:05.814Z,10.52
2022-09-21T02:59:32.918Z,9.38
2022-09-21T03:04:27.861Z,8.43
2022-09-21T03:06:54.611Z,7.85
2022-09-21T03:09:24.179Z,8.30
2022-09-21T03:11:51.700Z,9.27
2022-09-21T03:14:19.165Z,7.22
2022-09-21T03:16:46.075Z,7.50
2022-09-21T03:19:12.964Z,8.02
2022-09-21T03:21:44.270Z,6.95
2022-09-21T03:24:11.467Z,5.95
2022-09-21T03:26:38.316Z,8.05
2022-09-21T03:29:05.171Z,7.22
2022-09-21T03:31:32.298Z,7.00
2022-09-21T03:36:26.288Z,7.05
2022-09-21T03:38:53.016Z,7.80
2022-09-21T03:41:19.902Z,7.90
2022-09-21T03:43:46.606Z,7.72
2022-09-21T03:46:13.340Z,7.45
2022-09-21T03:48:42.423Z,7.13
2022-09-21T03:51:09.220Z,6.57
2022-09-21T03:53:35.992Z,6.45
2022-09-21T03:56:02.774Z,6.47
2022-09-21T03:58:29.482Z,6.85
2022-09-21T04:01:02.926Z,6.93
2022-09-21T04:03:30.884Z,7.07
2022-09-21T04:05:57.857Z,6.20
2022-09-21T04:08:24.736Z,6.15
2022-09-21T04:10:51.475Z,6.03
2022-09-21T04:13:18.192Z,6.32
2022-09-21T04:15:45.005Z,5.55
2022-09-21T04:18:12.003Z,5.70
2022-09-21T04:20:38.831Z,6.82
2022-09-21T04:23:07.719Z,6.03
2022-09-21T04:25:34.510Z,5.82
2022-09-21T04:28:01.516Z,5.63
2022-09-21T04:30:29.079Z,5.47
2022-09-21T04:32:55.847Z,5.70
2022-09-21T04:35:22.603Z,5.55
2022-09-21T04:37:49.307Z,4.95
2022-09-21T04:40:16.502Z,6.18
2022-09-21T04:42:43.314Z,6.10
2022-09-21T04:45:10.916Z,5.22
2022-09-21T04:47:37.612Z,5.32
2022-09-21T04:50:04.755Z,5.22
2022-09-21T04:52:31.931Z,7.28
2022-09-21T04:57:25.736Z,11.38
2022-09-21T04:59:52.495Z,10.13
2022-09-21T05:02:19.383Z,8.48
2022-09-21T05:04:50.629Z,7.80
2022-09-21T05:07:17.834Z,7.38
2022-09-21T05:10:02.911Z,6.57
2022-09-21T05:12:33.762Z,6.63
2022-09-21T05:15:00.770Z,5.15
2022-09-21T05:17:27.912Z,5.30
2022-09-21T05:19:54.931Z,5.45
2022-09-21T05:22:21.860Z,5.20
2022-09-21T05:24:48.709Z,6.05
2022-09-21T05:27:15.421Z,5.40
2022-09-21T05:29:42.504Z,5.15
2022-09-21T05:35:03.108Z,5.40
2022-09-21T05:37:55.947Z,6.95
2022-09-21T05:40:23.165Z,6.95
2022-09-21T05:45:18.835Z,5.07
2022-09-21T05:47:45.563Z,5.97
2022-09-21T05:50:21.366Z,6.70
2022-09-21T05:53:26.969Z,5.70
2022-09-21T05:56:04.908Z,5.90
2022-09-21T05:58:52.119Z,6.03
2022-09-21T06:01:36.512Z,7.53
2022-09-21T06:04:04.387Z,6.10
2022-09-21T06:06:31.281Z,6.43
2022-09-21T06:08:58.108Z,7.07
2022-09-21T06:11:24.922Z,7.38
2022-09-21T06:13:51.670Z,7.05
2022-09-21T06:16:18.400Z,6.72
2022-09-21T06:18:45.180Z,7.40
2022-09-21T06:21:12.026Z,7.10
2022-09-21T06:23:38.923Z,6.53
2022-09-21T06:28:32.482Z,6.95
2022-09-21T06:30:59.434Z,5.90
2022-09-21T06:33:26.551Z,6.43
2022-09-21T06:38:25.104Z,6.50
2022-09-21T06:40:52.532Z,6.35
2022-09-21T06:43:20.117Z,5.88
2022-09-21T06:45:54.536Z,6.05
2022-09-21T06:48:21.784Z,6.63
2022-09-21T06:50:48.690Z,6.15
2022-09-21T06:53:16.196Z,5.43
2022-09-21T06:55:42.995Z,5.95
2022-09-21T06:58:10.532Z,6.38
2022-09-21T07:00:37.220Z,5.82
2022-09-21T07:03:04.189Z,5.88
2022-09-21T07:07:59.753Z,6.63
2022-09-21T07:10:26.725Z,6.32
2022-09-21T07:12:53.779Z,7.07
2022-09-21T07:17:52.580Z,5.97
2022-09-21T07:20:20.180Z,5.80
2022-09-21T07:25:14.412Z,6.70
2022-09-21T07:27:41.199Z,6.05
2022-09-21T07:30:09.063Z,6.28
2022-09-21T07:32:36.516Z,5.95
2022-09-21T07:35:07.231Z,6.53
2022-09-21T07:37:34.027Z,5.63
2022-09-21T07:40:04.261Z,4.88
2022-09-21T07:42:30.991Z,5.75
2022-09-21T07:45:04.005Z,4.47
2022-09-21T07:47:31.566Z,4.57
2022-09-21T07:49:58.368Z,3.90
2022-09-21T07:52:25.198Z,4.95
2022-09-21T07:54:52.133Z,5.07
2022-09-21T08:00:05.824Z,4.03
2022-09-21T08:02:38.836Z,4.30
2022-09-21T08:05:07.433Z,4.30
2022-09-21T08:07:35.159Z,4.18
2022-09-21T08:10:01.965Z,3.53
2022-09-21T08:12:28.776Z,4.50
2022-09-21T08:14:55.494Z,3.88
2022-09-21T08:17:22.264Z,3.72
2022-09-21T08:19:49.025Z,4.03
2022-09-21T08:22:15.788Z,2.55
2022-09-21T08:24:44.309Z,2.88
2022-09-21T08:27:11.438Z,2.60
2022-09-21T08:29:38.420Z,2.20
2022-09-21T08:32:05.432Z,1.98
2022-09-21T08:34:32.306Z,2.08
2022-09-21T08:36:59.162Z,2.10
2022-09-21T08:39:26.184Z,1.58
2022-09-21T08:42:04.667Z,2.60
2022-09-21T08:44:53.355Z,1.77
2022-09-21T08:47:34.536Z,2.22
2022-09-21T08:50:03.689Z,1.10
2022-09-21T08:52:32.849Z,1.83
2022-09-21T08:55:20.005Z,1.38
2022-09-21T08:57:47.200Z,1.08
2022-09-21T09:00:19.128Z,1.80
2022-09-21T09:02:54.901Z,1.48
2022-09-21T09:05:42.918Z,1.27
2022-09-21T09:08:12.708Z,1.30
2022-09-21T09:10:45.863Z,0.90
2022-09-21T09:13:34.135Z,1.75
2022-09-21T09:16:09.603Z,1.23
2022-09-21T09:18:43.649Z,1.25
2022-09-21T09:21:29.371Z,1.20
2022-09-21T09:24:14.540Z,1.20
2022-09-21T09:26:55.415Z,1.13
2022-09-21T09:29:29.164Z,0.98
2022-09-21T09:31:58.072Z,0.98
2022-09-21T09:34:38.967Z,1.40
2022-09-21T09:37:17.481Z,1.20
2022-09-21T09:39:54.916Z,1.58
2022-09-21T09:42:48.394Z,1.30
2022-09-21T09:45:27.395Z,1.33
2022-09-21T09:48:24.148Z,0.90
2022-09-21T09:50:51.521Z,0.73
2022-09-21T09:53:22.324Z,1.10
2022-09-21T09:55:54.711Z,0.88
2022-09-21T09:58:49.736Z,1.08
2022-09-21T10:01:38.932Z,0.65
2022-09-21T10:04:14.023Z,0.60
2022-09-21T10:06:46.043Z,0.88
2022-09-21T10:09:31.656Z,0.68
2022-09-21T10:12:01.667Z,4.68
2022-09-21T10:14:34.218Z,13.25
2022-09-21T10:17:06.495Z,1.00
2022-09-21T10:19:33.630Z,0.63
2022-09-21T10:22:02.094Z,0.88
2022-09-21T10:24:37.325Z,0.80
2022-09-21T10:27:15.607Z,0.70
2022-09-21T10:29:47.682Z,0.65
2022-09-21T10:32:15.124Z,0.93
2022-09-21T10:34:59.710Z,1.27
2022-09-21T10:37:28.070Z,0.50
2022-09-21T10:39:56.855Z,0.75
2022-09-21T10:42:23.898Z,0.63
2022-09-21T10:44:53.421Z,0.80
2022-09-21T10:47:35.964Z,0.85
2022-09-21T10:50:07.721Z,0.50
2022-09-21T10:52:45.954Z,0.80
2022-09-21T10:55:22.531Z,0.57
2022-09-21T10:57:50.732Z,0.45
2022-09-21T11:00:29.358Z,0.80
2022-09-21T11:03:00.871Z,0.50
2022-09-21T11:05:34.894Z,0.47
2022-09-21T11:08:27.779Z,0.60
2022-09-21T11:11:26.783Z,0.60
2022-09-21T11:14:20.113Z,0.50
2022-09-21T11:16:51.344Z,0.63
2022-09-21T11:19:37.783Z,0.57
2022-09-21T11:22:32.399Z,0.40
2022-09-21T11:25:23.254Z,0.40
2022-09-21T11:27:57.794Z,0.32
2022-09-21T11:30:24.702Z,0.40
2022-09-21T11:33:29.089Z,0.43
2022-09-21T11:36:16.023Z,0.50
2022-09-21T11:41:39.987Z,1.30
2022-09-21T11:44:25.621Z,0.52
2022-09-21T11:47:16.968Z,0.47
2022-09-21T11:50:03.062Z,0.57
2022-09-21T11:53:11.124Z,0.52
2022-09-21T11:56:10.935Z,0.45
2022-09-21T11:58:42.311Z,0.52
2022-09-21T12:01:36.539Z,0.60
2022-09-21T12:04:28.136Z,0.52
2022-09-21T12:07:15.531Z,0.50
2022-09-21T12:10:10.282Z,0.50
2022-09-21T12:12:54.965Z,0.30
2022-09-21T12:16:04.843Z,0.88
2022-09-21T12:18:43.860Z,0.40
2022-09-21T12:21:14.127Z,0.38
2022-09-21T12:23:49.696Z,0.47
2022-09-21T12:26:39.166Z,0.50
2022-09-21T12:29:11.958Z,0.70
2022-09-21T12:31:48.551Z,0.57
2022-09-21T12:34:22.723Z,0.40
2022-09-21T12:37:08.194Z,0.50
2022-09-21T12:40:13.488Z,0.40
2022-09-21T12:42:52.559Z,0.57
2022-09-21T12:46:01.255Z,0.52
2022-09-21T12:48:41.879Z,0.52
2022-09-21T12:51:32.697Z,0.60
2022-09-21T12:54:08.529Z,0.63
2022-09-21T12:56:41.186Z,0.70
2022-09-21T12:59:29.802Z,0.77
2022-09-21T13:02:00.170Z,0.70
2022-09-21T13:05:04.230Z,0.77
2022-09-21T13:07:46.194Z,0.82
2022-09-21T13:10:31.487Z,0.60
2022-09-21T13:13:02.276Z,0.40
2022-09-21T13:15:32.133Z,0.60
2022-09-21T13:18:00.521Z,0.40
2022-09-21T13:20:33.000Z,0.57
2022-09-21T13:23:02.223Z,0.50
2022-09-21T13:25:32.505Z,1.30
2022-09-21T13:28:02.015Z,0.50
2022-09-21T13:30:32.476Z,0.45
2022-09-21T13:33:00.024Z,0.70
2022-09-21T13:36:04.520Z,1.05
2022-09-21T13:38:34.348Z,0.93
2022-09-21T13:41:19.373Z,0.75
2022-09-21T13:44:04.372Z,0.63
2022-09-21T13:46:35.483Z,0.82
2022-09-21T13:49:11.388Z,0.90
2022-09-21T13:52:02.081Z,1.10
2022-09-21T13:54:57.012Z,1.10
2022-09-21T13:57:45.910Z,0.70
2022-09-21T14:00:12.694Z,0.60
2022-09-21T14:02:56.492Z,0.95
2022-09-21T14:05:26.183Z,0.90
2022-09-21T14:08:15.949Z,1.13
2022-09-21T14:10:52.289Z,1.08
2022-09-21T14:13:41.918Z,0.82
2022-09-21T14:16:57.713Z,0.90
2022-09-21T14:19:26.838Z,0.70
2022-09-21T14:22:05.732Z,0.82
2022-09-21T14:25:11.421Z,0.50
2022-09-21T14:27:46.849Z,0.70
2022-09-21T14:30:28.553Z,0.70
2022-09-21T14:33:02.030Z,0.82
2022-09-21T14:35:36.577Z,1.08
2022-09-21T14:38:24.517Z,0.68
2022-09-21T14:40:54.670Z,0.60
2022-09-21T14:43:28.915Z,0.52
2022-09-21T14:46:20.326Z,0.50
2022-09-21T14:49:21.599Z,1.02
2022-09-21T14:52:12.340Z,1.10
2022-09-21T14:55:17.766Z,0.65
2022-09-21T14:58:19.365Z,0.60
2022-09-21T15:00:49.781Z,0.50
2022-09-21T15:04:16.570Z,0.68
2022-09-21T15:07:42.180Z,0.80
2022-09-21T15:10:39.304Z,0.65
2022-09-21T15:13:23.995Z,1.13
2022-09-21T15:16:20.206Z,1.20
2022-09-21T15:18:49.202Z,0.88
2022-09-21T15:21:22.116Z,0.80
2022-09-21T15:23:51.438Z,1.50
2022-09-21T15:26:26.629Z,0.80
2022-09-21T15:29:09.216Z,0.85
2022-09-21T15:31:39.371Z,0.90
2022-09-21T15:34:07.879Z,0.80
2022-09-21T15:36:43.113Z,1.00
2022-09-21T15:39:28.105Z,1.15
2022-09-21T15:42:06.139Z,0.70
2022-09-21T15:44:33.896Z,0.90
2022-09-21T15:47:03.017Z,1.10
2022-09-21T15:49:30.387Z,0.80
2022-09-21T15:52:13.542Z,0.90
2022-09-21T15:54:42.587Z,0.63
2022-09-21T15:57:41.228Z,0.70
2022-09-21T16:00:20.315Z,0.85
2022-09-21T16:02:55.941Z,0.65
2022-09-21T16:05:25.481Z,0.80
2022-09-21T16:08:05.335Z,0.52
2022-09-21T16:10:38.043Z,0.55
2022-09-21T16:13:33.905Z,0.73
2022-09-21T16:16:14.692Z,1.02
2022-09-21T16:18:51.910Z,0.50
2022-09-21T16:21:22.790Z,0.40
2022-09-21T16:23:51.722Z,0.43
2022-09-21T16:26:24.541Z,0.75
2022-09-21T16:29:15.555Z,0.50
2022-09-21T16:31:46.318Z,0.40
2022-09-21T16:34:32.892Z,0.40
2022-09-21T16:37:02.136Z,0.52
2022-09-21T16:39:29.163Z,0.70
2022-09-21T16:42:01.074Z,0.73
2022-09-21T16:44:36.681Z,0.75
2022-09-21T16:47:03.913Z,0.85
2022-09-21T16:49:35.659Z,0.90
2022-09-21T16:52:02.705Z,0.57
2022-09-21T16:54:29.843Z,0.80
2022-09-21T16:57:02.671Z,0.82
2022-09-21T16:59:29.715Z,0.57
2022-09-21T17:01:57.994Z,0.80
2022-09-21T17:04:29.138Z,0.57
2022-09-21T17:06:56.691Z,0.70
2022-09-21T17:09:29.904Z,0.82
2022-09-21T17:12:01.771Z,0.85
2022-09-21T17:14:32.954Z,1.05
2022-09-21T17:17:00.762Z,0.90
2022-09-21T17:19:27.739Z,1.23
2022-09-21T17:21:54.395Z,1.80
2022-09-21T17:24:45.931Z,1.80
2022-09-21T17:27:08.205Z,9.07
2022-09-21T17:29:37.084Z,3.00
2022-09-21T17:32:07.456Z,2.92
2022-09-21T17:34:35.555Z,5.40
2022-09-21T17:37:02.403Z,4.38
2022-09-21T17:42:05.685Z,2.58
2022-09-21T17:44:59.507Z,2.42
2022-09-21T17:47:31.175Z,2.25
2022-09-21T17:50:23.082Z,1.58
2022-09-21T17:53:09.169Z,1.30
2022-09-21T17:55:36.104Z,1.63
2022-09-21T18:01:05.095Z,2.03
2022-09-21T18:03:41.721Z,1.88
2022-09-21T18:06:10.112Z,2.03
2022-09-21T18:08:39.016Z,1.92
2022-09-21T18:11:18.370Z,1.08
2022-09-21T18:14:10.893Z,1.55
2022-09-21T18:16:57.855Z,2.47
2022-09-21T18:19:42.434Z,1.27
2022-09-21T18:22:33.864Z,2.00
2022-09-21T18:25:01.091Z,1.48
2022-09-21T18:27:28.227Z,1.20
2022-09-21T18:29:55.386Z,1.23
2022-09-21T18:32:56.934Z,1.40
2022-09-21T18:35:40.719Z,1.20
2022-09-21T18:38:28.020Z,1.05
2022-09-21T18:41:21.387Z,1.35
2022-09-21T18:44:13.697Z,1.20
2022-09-21T18:47:05.953Z,1.30
2022-09-21T18:49:43.210Z,1.30
2022-09-21T18:52:35.186Z,2.17
2022-09-21T18:55:02.524Z,2.08
2022-09-21T18:57:32.330Z,2.67
2022-09-21T19:00:00.159Z,2.17
2022-09-21T19:02:28.481Z,2.90
2022-09-21T19:04:59.077Z,7.53
2022-09-21T19:07:39.596Z,6.55
2022-09-21T19:10:12.526Z,2.85
2022-09-21T19:12:45.686Z,1.85
2022-09-21T19:16:00.725Z,2.70
2022-09-21T19:18:40.078Z,1.70
2022-09-21T19:21:38.383Z,4.75
2022-09-21T19:24:13.736Z,25.00
2022-09-21T19:26:55.876Z,16.42
2022-09-21T19:29:47.118Z,15.13
2022-09-21T19:32:22.697Z,15.57
2022-09-21T19:34:51.560Z,15.43
2022-09-21T19:37:18.408Z,9.45
2022-09-21T19:39:45.268Z,4.75
2022-09-21T19:42:21.034Z,2.55
2022-09-21T19:45:11.433Z,2.08
2022-09-21T19:47:52.620Z,1.67
2022-09-21T19:50:29.947Z,2.30
2022-09-21T19:53:17.041Z,2.67
2022-09-21T19:56:03.876Z,2.53
2022-09-21T19:58:49.336Z,1.65
2022-09-21T20:01:21.118Z,1.88
2022-09-21T20:03:49.066Z,1.90
2022-09-21T20:06:28.989Z,1.95
2022-09-21T20:09:05.123Z,1.90
2022-09-21T20:11:34.705Z,1.73
2022-09-21T20:14:25.868Z,1.65
2022-09-21T20:16:57.137Z,1.45
2022-09-21T20:19:34.862Z,2.03
2022-09-21T20:22:09.960Z,1.35
2022-09-21T20:24:36.633Z,1.75
2022-09-21T20:27:25.186Z,1.73
2022-09-21T20:29:51.992Z,1.48
2022-09-21T20:32:21.212Z,1.95
2022-09-21T20:34:49.925Z,1.08
2022-09-21T20:37:20.503Z,1.73
2022-09-21T20:39:47.561Z,1.50
2022-09-21T20:44:53.951Z,2.00
2022-09-21T20:47:21.024Z,1.67
2022-09-21T20:49:48.400Z,1.50
2022-09-21T20:52:16.872Z,1.67
2022-09-21T20:54:48.935Z,2.00
2022-09-21T20:57:20.267Z,2.10
2022-09-21T20:59:47.299Z,1.85
2022-09-21T21:02:16.484Z,1.67
2022-09-21T21:04:43.215Z,1.77
2022-09-21T21:07:10.263Z,2.80
2022-09-21T21:12:03.882Z,2.42
2022-09-21T21:14:30.663Z,2.08
2022-09-21T21:16:57.600Z,1.67
2022-09-21T21:19:24.383Z,1.85
2022-09-21T21:21:51.332Z,2.50
2022-09-21T21:27:03.884Z,1.52
2022-09-21T21:29:31.891Z,1.92
2022-09-21T21:31:59.652Z,1.80
2022-09-21T21:34:26.915Z,2.00
2022-09-21T21:36:53.665Z,1.80
2022-09-21T21:39:20.339Z,2.58
2022-09-21T21:41:47.372Z,1.80
2022-09-21T21:44:15.064Z,2.92
2022-09-21T21:46:42.201Z,2.15
2022-09-21T21:49:09.196Z,2.25
2022-09-21T21:54:02.932Z,3.40
2022-09-21T21:56:29.690Z,2.88
2022-09-21T21:58:57.025Z,4.13
2022-09-21T22:01:26.779Z,2.67
2022-09-21T22:03:55.774Z,2.00
2022-09-21T22:06:23.626Z,9.63
2022-09-21T22:08:51.630Z,5.68
2022-09-21T22:11:20.033Z,4.80
2022-09-21T22:13:46.803Z,4.30
2022-09-21T22:16:16.375Z,3.60
2022-09-21T22:18:45.324Z,4.10
2022-09-21T22:21:23.607Z,2.72
2022-09-21T22:24:04.794Z,3.15
2022-09-21T22:26:36.114Z,4.07
2022-09-21T22:29:04.867Z,3.15
2022-09-21T22:31:35.888Z,2.38
2022-09-21T22:34:02.887Z,2.30
2022-09-21T22:38:58.236Z,2.30
2022-09-21T22:41:27.759Z,2.55
2022-09-21T22:43:56.507Z,2.40
2022-09-21T22:46:25.092Z,2.60
2022-09-21T22:48:52.325Z,2.80
2022-09-21T22:51:20.378Z,3.15
2022-09-21T22:53:48.376Z,2.35
2022-09-21T22:56:20.581Z,2.75
2022-09-21T22:58:49.982Z,2.38
2022-09-21T23:01:25.822Z,2.22
2022-09-21T23:03:58.334Z,2.15
2022-09-21T23:06:28.240Z,2.10
2022-09-21T23:08:57.064Z,1.77
2022-09-21T23:11:33.391Z,2.22
2022-09-21T23:14:00.623Z,1.70
2022-09-21T23:16:29.015Z,2.22
2022-09-21T23:18:56.683Z,1.73
2022-09-21T23:21:26.203Z,1.77
2022-09-21T23:23:59.871Z,2.28
2022-09-21T23:26:28.575Z,1.95
2022-09-21T23:28:57.486Z,2.00
2022-09-21T23:31:26.940Z,1.95
2022-09-21T23:33:56.049Z,1.83
2022-09-21T23:36:26.048Z,2.35
2022-09-21T23:38:53.407Z,1.88
2022-09-21T23:41:24.783Z,2.00
2022-09-21T23:43:52.453Z,2.30
2022-09-21T23:46:26.911Z,2.92
2022-09-21T23:48:54.023Z,2.88
2022-09-21T23:53:47.658Z,4.03
2022-09-21T23:56:17.735Z,3.08
2022-09-21T23:58:45.001Z,3.28
